Time;durP1;ratioP1;P1;durP2;ratioP2;P2;SDS_P1;SDS_P2;PMS_P1;PMS_P2;Temp;Humidity;BMP_temperature;BMP_pressure;BME280_temperature;BME280_humidity;BME280_pressure;Samples;Min_cycle;Max_cycle;Signal;HPM_P1;HPM_P2
2021/12/25 00:00:13;;;;;;;5.95;2.05;;;;;;;1.49;76.33;95753.19;1777246;79;28494;-85
2021/12/25 00:02:42;;;;;;;3.92;2.40;;;;;;;1.43;76.47;95769.94;1793599;79;25478;-85
2021/12/25 00:05:12;;;;;;;4.10;2.02;;;;;;;1.34;76.55;95763.09;1789186;79;25762;-85
2021/12/25 00:07:39;;;;;;;4.17;1.90;;;;;;;1.32;76.71;95761.99;1783318;79;25927;-86
2021/12/25 00:10:08;;;;;;;2.65;1.60;;;;;;;1.28;76.96;95764.71;1786395;79;25703;-86
2021/12/25 00:12:35;;;;;;;3.47;1.77;;;;;;;1.23;76.98;95766.30;1789590;79;27201;-86
2021/12/25 00:15:04;;;;;;;3.02;1.70;;;;;;;1.20;77.00;95762.72;1793628;79;26224;-85
2021/12/25 00:17:32;;;;;;;2.67;1.40;;;;;;;1.24;77.03;95774.08;1757379;79;25710;-86
2021/12/25 00:19:59;;;;;;;2.67;1.37;;;;;;;1.25;76.88;95772.24;1740872;81;26586;-86
2021/12/25 00:22:25;;;;;;;3.10;1.50;;;;;;;1.17;76.94;95783.02;1740810;81;25820;-85
2021/12/25 00:24:53;;;;;;;2.27;1.70;;;;;;;1.12;76.93;95793.39;1706480;83;28018;-85
2021/12/25 00:30:22;;;;;;;2.08;1.00;;;;;;;1.06;77.06;95797.16;1789865;79;25836;-86
2021/12/25 00:34:49;;;;;;;3.27;1.42;;;;;;;0.93;77.09;95805.51;1791528;79;25736;-86
2021/12/25 00:37:17;;;;;;;1.75;1.00;;;;;;;0.85;77.29;95808.27;1766044;79;27543;-86
2021/12/25 00:39:43;;;;;;;2.02;1.27;;;;;;;0.81;77.29;95831.76;1702861;83;25783;-85
2021/12/25 00:42:12;;;;;;;2.90;1.80;;;;;;;0.80;77.44;95831.94;1778180;79;25743;-86
2021/12/25 00:44:39;;;;;;;2.33;1.70;;;;;;;0.81;77.53;95839.73;1789958;79;25718;-85
2021/12/25 00:47:06;;;;;;;6.15;2.62;;;;;;;0.83;77.67;95841.70;1794285;79;25816;-85
2021/12/25 00:49:32;;;;;;;6.80;2.70;;;;;;;0.85;77.77;95844.95;1770390;79;28535;-86
2021/12/25 00:51:59;;;;;;;7.45;2.55;;;;;;;0.80;77.68;95848.70;1761409;80;25753;-86
2021/12/25 00:54:26;;;;;;;7.62;2.85;;;;;;;0.76;77.81;95856.72;1761454;80;25774;-86
2021/12/25 00:56:52;;;;;;;6.60;2.75;;;;;;;0.76;77.82;95875.81;1761308;80;25824;-85
2021/12/25 00:59:19;;;;;;;8.43;3.10;;;;;;;0.76;77.84;95879.80;1761619;81;25671;-85
2021/12/25 01:01:46;;;;;;;4.72;2.65;;;;;;;0.77;77.87;95886.26;1761512;81;27365;-86
2021/12/25 01:04:13;;;;;;;5.50;2.45;;;;;;;0.77;77.88;95886.26;1761392;80;25855;-85
2021/12/25 01:06:39;;;;;;;7.60;2.77;;;;;;;0.80;77.97;95891.20;1761274;80;25853;-85
2021/12/25 01:09:07;;;;;;;8.80;3.50;;;;;;;0.81;77.92;95888.87;1763698;81;25805;-84
2021/12/25 01:11:35;;;;;;;6.50;2.30;;;;;;;0.80;77.92;95900.50;1766682;80;26540;-83
2021/12/25 01:14:21;;;;;;;11.25;3.98;;;;;;;0.80;77.92;95898.34;1766671;80;27456;-82
2021/12/25 01:17:06;;;;;;;6.55;3.30;;;;;;;0.77;77.97;95910.16;1764862;80;25983;-83
2021/12/25 01:19:36;;;;;;;10.05;3.52;;;;;;;0.78;77.96;95899.86;1762459;81;25752;-82
2021/12/25 01:21:59;;;;;;;9.38;3.60;;;;;;;0.70;78.01;95909.28;1763132;80;25815;-82
2021/12/25 01:24:42;;;;;;;6.60;2.87;;;;;;;0.71;78.06;95901.63;1764041;81;25776;-83
2021/12/25 01:27:26;;;;;;;6.03;2.20;;;;;;;0.72;78.06;95913.91;1763998;80;28370;-85
2021/12/25 01:30:14;;;;;;;5.85;2.70;;;;;;;0.74;78.03;95921.16;1763164;80;25275;-84
2021/12/25 01:37:36;;;;;;;4.50;2.15;;;;;;;0.71;77.98;95937.48;1766821;80;25746;-84
2021/12/25 01:40:11;;;;;;;3.42;1.98;;;;;;;0.65;78.01;95925.75;1764051;80;27369;-84
2021/12/25 01:47:50;;;;;;;3.15;2.00;;;;;;;0.55;78.02;95939.01;1766718;80;26512;-84
2021/12/25 01:50:24;;;;;;;3.33;1.98;;;;;;;0.54;78.05;95943.99;1767039;81;25757;-84
2021/12/25 01:52:51;;;;;;;2.90;2.00;;;;;;;0.53;78.16;95931.22;1766737;80;28146;-84
2021/12/25 01:55:23;;;;;;;3.47;1.90;;;;;;;0.54;78.13;95937.36;1766777;80;25821;-84
2021/12/25 01:57:50;;;;;;;3.00;1.70;;;;;;;0.55;78.21;95931.04;1765244;81;26196;-84
2021/12/25 02:00:22;;;;;;;1.95;1.40;;;;;;;0.52;78.10;95932.23;1766923;81;25777;-84
2021/12/25 02:02:50;;;;;;;4.22;1.80;;;;;;;0.48;78.09;95937.61;1767021;81;26178;-84
2021/12/25 02:05:18;;;;;;;4.30;1.75;;;;;;;0.45;78.15;95938.47;1766809;81;27733;-85
2021/12/25 02:07:46;;;;;;;3.55;1.87;;;;;;;0.41;78.19;95950.45;1766618;80;26291;-84
2021/12/25 02:10:15;;;;;;;6.37;2.50;;;;;;;0.43;78.16;95955.08;1766607;80;25861;-84
2021/12/25 02:12:42;;;;;;;4.35;2.00;;;;;;;0.42;78.25;95952.11;1766788;80;25877;-84
2021/12/25 02:15:15;;;;;;;2.85;1.98;;;;;;;0.42;78.28;95951.60;1766497;80;25766;-84
2021/12/25 02:18:02;;;;;;;5.95;2.65;;;;;;;0.48;78.32;95960.67;1766415;80;27375;-84
2021/12/25 02:20:27;;;;;;;4.50;2.27;;;;;;;0.48;78.35;95967.31;1764621;81;25911;-84
2021/12/25 02:22:54;;;;;;;5.65;2.35;;;;;;;0.48;78.31;95974.78;1766328;80;25742;-84
2021/12/25 02:25:19;;;;;;;4.30;2.80;;;;;;;0.47;78.44;95975.78;1766550;81;26350;-85
2021/12/25 02:27:45;;;;;;;3.72;2.10;;;;;;;0.49;78.37;95983.53;1766740;80;25721;-84
2021/12/25 02:30:12;;;;;;;4.42;2.42;;;;;;;0.48;78.32;95987.23;1766847;80;28091;-84
2021/12/25 02:32:39;;;;;;;3.33;2.10;;;;;;;0.57;78.34;95995.41;1766729;80;25698;-84
2021/12/25 02:35:06;;;;;;;4.12;2.40;;;;;;;0.58;78.29;95988.59;1742899;81;25844;-84
2021/12/25 02:37:32;;;;;;;2.65;1.70;;;;;;;0.63;78.21;95995.98;1766738;80;25753;-84
2021/12/25 02:39:59;;;;;;;3.45;2.05;;;;;;;0.63;78.00;96002.62;1791596;79;25725;-84
2021/12/25 02:42:26;;;;;;;3.98;2.40;;;;;;;0.60;77.85;96012.31;1795513;79;26806;-84
2021/12/25 02:44:52;;;;;;;4.05;2.40;;;;;;;0.56;77.71;96013.67;1799982;79;25684;-84
2021/12/25 02:47:20;;;;;;;4.62;2.58;;;;;;;0.57;77.70;96017.98;1799878;79;25767;-84
2021/12/25 02:49:50;;;;;;;4.17;2.30;;;;;;;0.63;77.69;96022.55;1800094;79;26661;-84
2021/12/25 02:52:18;;;;;;;4.03;2.10;;;;;;;0.64;77.56;96019.71;1800136;79;25819;-84
2021/12/25 02:54:45;;;;;;;2.95;2.17;;;;;;;0.68;77.50;96021.00;1800265;79;28198;-83
2021/12/25 02:57:12;;;;;;;2.12;1.77;;;;;;;0.68;77.40;96008.22;1800142;79;25797;-84
2021/12/25 02:59:39;;;;;;;2.90;2.08;;;;;;;0.66;77.31;96008.91;1800210;79;25799;-84
2021/12/25 03:02:10;;;;;;;3.83;2.00;;;;;;;0.68;77.27;96015.69;1800214;79;25959;-84
2021/12/25 03:04:44;;;;;;;4.22;2.25;;;;;;;0.73;77.29;96016.45;1800249;79;25514;-84
2021/12/25 03:07:11;;;;;;;3.60;2.27;;;;;;;0.73;77.24;96013.79;1800196;79;27465;-84
2021/12/25 03:09:40;;;;;;;5.30;2.62;;;;;;;0.74;77.15;96024.73;1799952;79;25732;-84
2021/12/25 03:12:11;;;;;;;3.37;2.60;;;;;;;0.75;77.10;96029.05;1799958;79;25917;-83
2021/12/25 03:17:28;;;;;;;3.77;2.45;;;;;;;0.78;77.04;96034.00;1800135;79;25680;-84
2021/12/25 03:19:55;;;;;;;3.80;2.65;;;;;;;0.83;77.06;96038.77;1800328;79;28033;-83
2021/12/25 03:22:23;;;;;;;3.62;2.40;;;;;;;0.82;76.90;96045.09;1800137;79;25755;-83
2021/12/25 03:24:49;;;;;;;4.25;3.08;;;;;;;0.81;76.86;96049.58;1800318;79;25723;-83
2021/12/25 03:27:17;;;;;;;3.85;2.67;;;;;;;0.83;76.87;96050.22;1800182;79;26483;-83
2021/12/25 03:29:43;;;;;;;3.42;2.62;;;;;;;0.79;76.71;96057.41;1775441;79;25872;-83
2021/12/25 03:32:11;;;;;;;4.67;2.75;;;;;;;0.77;76.77;96056.25;1800149;79;28105;-84
2021/12/25 03:34:38;;;;;;;4.70;2.92;;;;;;;0.77;76.77;96056.25;1800153;79;25697;-84
2021/12/25 03:37:05;;;;;;;5.12;3.47;;;;;;;0.81;76.80;96056.72;1799955;79;25788;-84
2021/12/25 03:39:31;;;;;;;4.10;2.90;;;;;;;0.83;76.75;96063.50;1800288;79;25870;-84
2021/12/25 03:41:58;;;;;;;4.50;2.98;;;;;;;0.83;76.68;96078.11;1800244;78;25643;-84
2021/12/25 03:44:28;;;;;;;5.58;3.42;;;;;;;0.85;76.66;96078.73;1799781;79;27612;-84
2021/12/25 03:47:00;;;;;;;6.35;3.30;;;;;;;0.82;76.57;96072.48;1784250;79;25907;-83
2021/12/25 03:49:34;;;;;;;7.20;4.08;;;;;;;0.83;76.61;96075.96;1784119;79;25796;-84
2021/12/25 03:57:44;;;;;;;6.22;3.90;;;;;;;0.82;76.50;96075.13;1784311;79;27399;-84
2021/12/25 04:00:15;;;;;;;6.53;4.03;;;;;;;0.80;76.51;96085.11;1784002;79;25657;-83
2021/12/25 04:02:53;;;;;;;;;;;;;;;0.81;76.47;96089.92;1786967;79;25720;-84
2021/12/25 04:05:16;;;;;;;4.72;3.37;;;;;;;0.80;76.44;96083.78;1783203;79;25735;-83
2021/12/25 04:07:58;;;;;;;5.12;3.35;;;;;;;0.72;76.36;96085.21;1783527;79;25661;-83
2021/12/25 04:10:07;;;;;;;6.28;3.98;;;;;;;0.69;76.32;96077.09;1780818;78;27552;-84
2021/12/25 04:12:33;;;;;;;4.42;3.37;;;;;;;0.68;76.22;96083.91;1781182;79;25719;-84
2021/12/25 04:15:00;;;;;;;5.87;3.52;;;;;;;0.67;76.22;96096.88;1781307;79;25720;-83
2021/12/25 04:17:27;;;;;;;4.25;3.20;;;;;;;0.66;76.10;96093.89;1781199;79;25793;-84
2021/12/25 04:19:53;;;;;;;5.70;3.47;;;;;;;0.63;75.99;96099.55;1781479;79;25611;-84
2021/12/25 04:22:27;;;;;;;6.40;3.52;;;;;;;0.56;76.00;96102.12;1781486;79;27949;-84
2021/12/25 04:24:50;;;;;;;5.62;3.65;;;;;;;0.53;75.91;96109.12;1780658;79;26532;-83
2021/12/25 04:27:17;;;;;;;5.65;3.50;;;;;;;0.53;75.88;96112.27;1781361;79;25870;-84
2021/12/25 04:32:48;;;;;;;6.37;4.30;;;;;;;0.53;75.79;96109.62;1781429;79;25298;-83
2021/12/25 05:02:36;;;;;;;5.85;3.70;;;;;;;0.51;74.95;96158.91;1781420;79;28214;-83
2021/12/25 05:04:54;;;;;;;6.35;4.10;;;;;;;0.52;74.85;96166.38;1779493;79;25758;-82
2021/12/25 05:07:17;;;;;;;9.65;4.17;;;;;;;0.52;74.83;96169.03;1781052;79;25667;-83
2021/12/25 05:09:43;;;;;;;5.40;3.72;;;;;;;0.50;74.78;96167.05;1781829;79;25704;-83
2021/12/25 05:12:11;;;;;;;5.65;4.08;;;;;;;0.51;74.75;96174.02;1787126;79;26277;-83
2021/12/25 05:14:39;;;;;;;5.12;3.58;;;;;;;0.46;74.65;96178.56;1787151;79;27453;-83
2021/12/25 05:17:07;;;;;;;6.25;3.70;;;;;;;0.44;74.57;96171.77;1787117;79;26436;-84
2021/12/25 05:19:34;;;;;;;7.00;3.85;;;;;;;0.42;74.57;96183.06;1786978;79;25827;-83
2021/12/25 05:22:01;;;;;;;8.70;4.50;;;;;;;0.40;74.46;96185.06;1787168;79;25730;-83
2021/12/25 05:24:28;;;;;;;6.08;4.05;;;;;;;0.40;74.36;96187.72;1787241;79;25814;-84
2021/12/25 05:26:57;;;;;;;7.40;3.95;;;;;;;0.42;74.26;96188.38;1787106;79;28379;-83
2021/12/25 05:29:24;;;;;;;9.50;4.10;;;;;;;0.40;74.19;96199.66;1794988;78;25767;-83
2021/12/25 05:31:52;;;;;;;6.25;3.55;;;;;;;0.43;74.21;96211.27;1787141;79;25716;-83
2021/12/25 05:34:19;;;;;;;4.65;3.30;;;;;;;0.45;74.18;96214.57;1787142;79;26637;-83
2021/12/25 05:36:45;;;;;;;7.12;3.52;;;;;;;0.49;74.13;96221.98;1787209;79;25814;-82
2021/12/25 05:39:13;;;;;;;5.92;3.50;;;;;;;0.47;73.96;96216.55;1787102;79;27571;-83
2021/12/25 05:41:40;;;;;;;5.05;3.40;;;;;;;0.45;73.92;96211.92;1787070;79;25878;-84
2021/12/25 05:44:07;;;;;;;5.37;3.65;;;;;;;0.42;73.81;96213.09;1787122;79;25654;-85
2021/12/25 05:46:34;;;;;;;5.05;3.60;;;;;;;0.38;73.86;96215.77;1787070;79;25725;-84
2021/12/25 05:49:01;;;;;;;8.33;3.50;;;;;;;0.39;74.02;96218.75;1787171;79;25367;-84
2021/12/25 05:51:27;;;;;;;6.62;4.05;;;;;;;0.38;74.08;96225.56;1787160;79;27598;-83
2021/12/25 05:53:54;;;;;;;6.78;3.90;;;;;;;0.34;74.15;96238.38;1786973;79;25778;-83
2021/12/25 05:56:23;;;;;;;5.03;3.30;;;;;;;0.34;74.17;96229.09;1787281;79;25767;-84
2021/12/25 05:58:49;;;;;;;3.83;3.42;;;;;;;0.22;73.95;96236.63;1799392;78;25688;-84
2021/12/25 06:01:16;;;;;;;4.75;3.50;;;;;;;0.11;73.99;96246.32;1805684;78;25741;-84
2021/12/25 06:03:42;;;;;;;5.55;3.40;;;;;;;0.01;74.00;96247.02;1801331;78;27578;-84
2021/12/25 06:06:09;;;;;;;3.87;2.65;;;;;;;-0.08;74.05;96258.67;1801174;79;25715;-83
2021/12/25 06:08:35;;;;;;;4.28;3.15;;;;;;;-0.20;73.92;96260.88;1780481;79;25714;-83
2021/12/25 06:11:05;;;;;;;5.05;3.40;;;;;;;-0.31;74.05;96263.09;1800162;78;26280;-83
2021/12/25 06:13:32;;;;;;;4.58;3.05;;;;;;;-0.42;74.01;96281.52;1794324;79;25766;-83
2021/12/25 06:15:58;;;;;;;4.53;3.52;;;;;;;-0.52;74.08;96279.08;1794583;79;28755;-83
2021/12/25 06:18:25;;;;;;;4.45;3.45;;;;;;;-0.56;74.23;96283.05;1794306;79;25808;-82
2021/12/25 06:20:52;;;;;;;4.53;3.58;;;;;;;-0.60;74.31;96280.40;1794516;79;25622;-83
2021/12/25 06:23:18;;;;;;;3.67;3.27;;;;;;;-0.64;74.29;96280.43;1793974;79;25723;-83
2021/12/25 06:25:45;;;;;;;5.80;3.60;;;;;;;-0.67;74.30;96275.45;1768378;79;25772;-82
2021/12/25 06:28:12;;;;;;;28.57;13.53;;;;;;;-0.78;74.23;96287.73;1794328;79;28123;-82
2021/12/25 06:30:38;;;;;;;10.63;6.22;;;;;;;-0.82;74.36;96293.03;1790020;79;26288;-82
2021/12/25 06:33:05;;;;;;;68.92;33.35;;;;;;;-0.88;74.40;96298.52;1758334;79;25743;-82
2021/12/25 06:35:32;;;;;;;13.32;7.65;;;;;;;-0.88;74.40;96301.67;1792448;79;25925;-82
2021/12/25 06:37:59;;;;;;;20.90;10.00;;;;;;;-0.92;74.38;96317.06;1793317;79;25721;-82
2021/12/25 06:40:25;;;;;;;17.27;6.47;;;;;;;-0.92;74.42;96317.56;1793613;79;27491;-82
2021/12/25 06:42:52;;;;;;;6.25;4.00;;;;;;;-0.98;74.47;96312.94;1794289;79;25858;-82
2021/12/25 06:45:18;;;;;;;7.42;3.77;;;;;;;-1.03;74.49;96320.05;1788518;79;26560;-82
2021/12/25 06:47:45;;;;;;;3.87;2.67;;;;;;;-1.02;74.67;96332.80;1791154;79;26616;-82
2021/12/25 06:50:12;;;;;;;7.37;4.47;;;;;;;-1.01;74.72;96334.45;1792713;79;25664;-82
2021/12/25 06:52:41;;;;;;;7.95;5.37;;;;;;;-1.02;74.65;96339.42;1782191;79;27340;-82
2021/12/25 06:55:08;;;;;;;8.60;5.78;;;;;;;-1.11;74.53;96342.08;1791424;79;25825;-82
2021/12/25 06:57:43;;;;;;;4.30;3.90;;;;;;;-1.10;74.53;96346.88;1794038;79;25737;-82
2021/12/25 07:00:06;;;;;;;4.83;3.98;;;;;;;-1.13;74.45;96349.35;1790031;79;25694;-82
2021/12/25 07:02:32;;;;;;;6.75;4.50;;;;;;;-1.19;74.45;96346.02;1793167;79;26136;-82
2021/12/25 07:05:00;;;;;;;27.55;14.60;;;;;;;-1.20;74.47;96353.62;1789917;79;27342;-82
2021/12/25 07:07:27;;;;;;;9.98;6.28;;;;;;;-1.20;74.44;96356.28;1791753;79;25771;-82
2021/12/25 07:09:53;;;;;;;9.43;5.45;;;;;;;-1.19;74.36;96349.16;1789334;79;25685;-82
2021/12/25 07:12:23;;;;;;;6.50;3.77;;;;;;;-1.21;74.34;96349.33;1793967;79;25992;-82
2021/12/25 07:14:48;;;;;;;9.05;4.42;;;;;;;-1.22;74.30;96355.64;1770775;79;25722;-82
2021/12/25 07:17:15;;;;;;;5.80;4.10;;;;;;;;;;1765717;79;27390;-82
2021/12/25 07:19:41;;;;;;;8.05;4.70;;;;;;;-1.18;74.30;96357.44;1776572;79;25897;-81
2021/12/25 07:22:08;;;;;;;13.32;7.72;;;;;;;-1.20;74.25;96364.22;1771847;79;25736;-82
2021/12/25 07:24:35;;;;;;;22.35;12.60;;;;;;;-1.17;74.35;96365.23;1783056;79;25852;-81
2021/12/25 07:27:05;;;;;;;23.55;13.22;;;;;;;-1.16;74.26;96378.80;1794028;79;26612;-81
2021/12/25 07:29:30;;;;;;;9.55;5.17;;;;;;;-1.18;74.20;96379.95;1793876;79;28222;-81
2021/12/25 07:31:56;;;;;;;9.45;5.45;;;;;;;-1.21;74.03;96379.77;1794240;79;26276;-81
2021/12/25 07:34:23;;;;;;;10.68;5.67;;;;;;;-1.26;73.99;96386.08;1794669;79;26211;-81
2021/12/25 07:36:50;;;;;;;15.83;9.68;;;;;;;-1.28;73.87;96393.34;1794620;79;25823;-81
2021/12/25 07:39:16;;;;;;;9.75;6.65;;;;;;;-1.29;73.91;96391.69;1794390;79;25754;-81
2021/12/25 07:41:43;;;;;;;6.65;4.28;;;;;;;-1.34;73.71;96391.36;1794299;79;27529;-81
2021/12/25 07:44:09;;;;;;;9.15;5.25;;;;;;;-1.41;73.66;96392.16;1794043;79;26493;-81
2021/12/25 07:46:36;;;;;;;9.25;5.22;;;;;;;-1.45;73.81;96392.99;1794364;79;26350;-81
2021/12/25 07:49:04;;;;;;;9.48;5.67;;;;;;;-1.45;73.80;96403.06;1794172;79;25769;-82
2021/12/25 07:51:31;;;;;;;13.75;6.80;;;;;;;-1.45;73.83;96416.81;1794546;79;25690;-81
2021/12/25 07:53:58;;;;;;;10.65;6.35;;;;;;;-1.43;73.93;96424.08;1794551;79;27402;-81
2021/12/25 07:56:26;;;;;;;6.22;4.45;;;;;;;-1.43;73.85;96429.38;1794464;79;25775;-81
2021/12/25 07:58:53;;;;;;;8.38;4.97;;;;;;;-1.46;73.76;96432.36;1794714;79;25828;-81
2021/12/25 08:01:20;;;;;;;7.15;4.80;;;;;;;-1.52;73.66;96431.66;1794656;79;25675;-80
2021/12/25 08:03:46;;;;;;;10.32;5.87;;;;;;;-1.56;73.75;96426.34;1794601;79;25673;-82
2021/12/25 08:06:13;;;;;;;12.45;6.28;;;;;;;-1.60;73.69;96440.41;1794644;79;27191;-81
2021/12/25 08:08:39;;;;;;;13.62;6.28;;;;;;;-1.68;73.55;96446.14;1794438;79;25808;-81
2021/12/25 08:11:06;;;;;;;15.43;6.15;;;;;;;-1.82;73.31;96440.49;1794486;78;25747;-81
2021/12/25 08:13:32;;;;;;;10.70;5.05;;;;;;;-1.95;73.24;96450.67;1794582;79;25783;-81
2021/12/25 08:15:59;;;;;;;15.25;7.80;;;;;;;-2.06;73.17;96452.27;1794633;79;25652;-81
2021/12/25 08:18:26;;;;;;;20.27;9.15;;;;;;;-2.16;73.13;96446.23;1794658;79;27521;-81
2021/12/25 08:20:52;;;;;;;19.57;9.25;;;;;;;-2.26;73.11;96450.80;1794263;79;26031;-81
2021/12/25 08:23:20;;;;;;;28.50;11.63;;;;;;;-2.30;73.12;96453.44;1794331;79;25704;-81
2021/12/25 08:25:47;;;;;;;24.77;10.38;;;;;;;-2.30;73.10;96453.44;1794611;79;26630;-80
2021/12/25 08:28:13;;;;;;;12.88;7.25;;;;;;;-2.37;72.82;96439.16;1794649;79;25677;-81
2021/12/25 08:30:40;;;;;;;7.70;5.30;;;;;;;-2.46;72.68;96434.81;1794581;79;27507;-82
2021/12/25 08:33:07;;;;;;;6.42;3.95;;;;;;;-2.53;72.68;96442.51;1794492;79;25251;-81
2021/12/25 08:35:34;;;;;;;8.55;5.15;;;;;;;-2.57;72.71;96431.44;1794569;79;25307;-81
2021/12/25 08:38:01;;;;;;;10.05;5.03;;;;;;;-2.59;72.65;96441.33;1785683;79;25901;-81
2021/12/25 08:40:28;;;;;;;10.88;5.97;;;;;;;-2.64;72.56;96439.63;1788851;79;25722;-81
2021/12/25 08:43:01;;;;;;;14.90;7.03;;;;;;;-2.69;72.43;96445.88;1794665;79;27337;-81
2021/12/25 08:47:57;;;;;;;19.15;8.68;;;;;;;-2.73;72.39;96469.60;1794636;79;25685;-81
2021/12/25 08:50:23;;;;;;;14.43;6.83;;;;;;;-2.74;72.43;96458.70;1794639;79;25781;-81
2021/12/25 08:52:50;;;;;;;16.82;7.72;;;;;;;-2.73;72.37;96463.00;1794702;79;25793;-81
2021/12/25 08:55:18;;;;;;;28.10;10.80;;;;;;;-2.76;72.22;96463.30;1794555;79;27378;-81
2021/12/25 08:57:44;;;;;;;31.70;12.85;;;;;;;-2.77;72.15;96464.77;1794528;79;25696;-81
2021/12/25 09:00:12;;;;;;;25.70;12.33;;;;;;;-2.81;72.07;96464.75;1794643;79;25740;-81
2021/12/25 09:02:39;;;;;;;37.15;15.40;;;;;;;-2.90;72.00;96477.06;1794790;79;25778;-80
2021/12/25 09:05:06;;;;;;;31.00;14.43;;;;;;;-2.96;71.99;96476.33;1794698;79;25765;-81
2021/12/25 09:07:33;;;;;;;28.65;11.75;;;;;;;-2.97;72.11;96481.27;1794767;79;27972;-80
2021/12/25 09:09:59;;;;;;;25.02;9.70;;;;;;;-2.99;72.09;96479.25;1794542;79;25691;-80
2021/12/25 09:12:28;;;;;;;26.75;12.15;;;;;;;-2.96;72.19;96478.97;1794382;79;25708;-81
2021/12/25 09:14:54;;;;;;;28.67;11.85;;;;;;;-3.01;71.96;96478.08;1794415;79;25904;-80
2021/12/25 09:17:21;;;;;;;25.82;10.72;;;;;;;-3.03;72.07;96468.67;1794816;79;25757;-81
2021/12/25 09:19:47;;;;;;;27.42;11.38;;;;;;;-3.04;72.18;96474.94;1794491;79;27417;-81
2021/12/25 09:22:14;;;;;;;25.08;12.15;;;;;;;-3.01;72.26;96474.61;1794485;79;25800;-81
2021/12/25 09:24:41;;;;;;;25.45;11.65;;;;;;;-3.04;72.14;96474.45;1794719;79;25711;-81
2021/12/25 09:27:08;;;;;;;19.37;9.53;;;;;;;-3.05;72.20;96483.83;1794771;79;25746;-80
2021/12/25 09:29:35;;;;;;;15.80;7.85;;;;;;;-3.05;72.20;96488.63;1794891;79;25654;-81
2021/12/25 09:32:03;;;;;;;27.95;10.53;;;;;;;-3.04;72.20;96492.09;1794801;79;27536;-81
2021/12/25 09:34:30;;;;;;;16.75;8.63;;;;;;;-3.02;72.20;96494.10;1793531;79;25722;-80
2021/12/25 09:36:56;;;;;;;23.00;10.63;;;;;;;-3.02;72.14;96491.46;1794938;79;25693;-80
2021/12/25 09:39:23;;;;;;;22.70;11.35;;;;;;;-2.99;72.20;96491.14;1794866;79;25885;-80
2021/12/25 09:41:50;;;;;;;30.37;13.05;;;;;;;-2.96;72.16;96489.53;1794806;79;26482;-80
2021/12/25 09:44:17;;;;;;;22.62;10.80;;;;;;;-2.91;72.12;96489.92;1794693;79;27518;-81
2021/12/25 09:46:43;;;;;;;21.87;10.40;;;;;;;-2.96;72.02;96488.20;1768162;79;25789;-81
2021/12/25 09:49:11;;;;;;;24.57;10.63;;;;;;;-3.02;72.05;96492.27;1794769;79;25681;-81
2021/12/25 09:51:37;;;;;;;27.20;12.68;;;;;;;-2.97;72.24;96491.83;1794819;79;26561;-81
2021/12/25 09:54:09;;;;;;;29.98;13.75;;;;;;;-2.95;72.30;96483.27;1794463;79;25818;-81
2021/12/25 09:56:40;;;;;;;18.60;9.75;;;;;;;-2.91;72.33;96485.95;1794487;79;46418;-81
2021/12/25 09:59:10;;;;;;;14.38;7.40;;;;;;;-2.88;72.22;96496.20;1794395;79;25939;-81
2021/12/25 10:01:47;;;;;;;21.70;10.68;;;;;;;-2.90;72.08;96491.06;1794768;79;25693;-81
2021/12/25 10:04:41;;;;;;;24.15;11.48;;;;;;;-2.94;71.96;96484.94;1794717;79;26476;-81
2021/12/25 10:07:25;;;;;;;137.22;50.45;;;;;;;-2.94;71.90;96481.80;1794884;79;26504;-81
2021/12/25 10:10:13;;;;;;;364.10;151.35;;;;;;;-2.96;72.02;96483.75;1794715;79;28340;-81
2021/12/25 10:12:47;;;;;;;126.45;54.75;;;;;;;-2.95;72.09;96487.23;1794395;78;25741;-81
2021/12/25 10:15:25;;;;;;;981.63;573.42;;;;;;;-2.93;72.05;96487.91;1768693;79;25683;-81
2021/12/25 10:17:56;;;;;;;193.68;87.90;;;;;;;-2.89;72.16;96477.37;1741115;80;26408;-81
2021/12/25 10:20:30;;;;;;;171.40;45.05;;;;;;;-2.87;72.11;96476.73;1706203;83;25769;-82
2021/12/25 10:23:09;;;;;;;102.27;28.25;;;;;;;-2.85;72.17;96484.02;1793766;79;28233;-81
2021/12/25 10:25:49;;;;;;;51.63;19.55;;;;;;;-2.80;72.31;96485.73;1791156;79;25734;-82
2021/12/25 10:28:21;;;;;;;58.70;19.85;;;;;;;-2.77;72.20;96486.73;1775591;79;26447;-81
2021/12/25 10:31:14;;;;;;;69.40;21.10;;;;;;;-2.73;72.13;96489.91;1794185;79;26527;-82
2021/12/25 10:33:50;;;;;;;262.95;128.53;;;;;;;-2.75;72.06;96482.61;1794347;79;26312;-81
2021/12/25 10:36:34;;;;;;;239.12;111.10;;;;;;;-2.73;72.18;96479.34;1794393;79;27374;-82
2021/12/25 10:39:23;;;;;;;56.50;25.08;;;;;;;-2.69;72.22;96485.98;1794678;79;26626;-82
2021/12/25 10:42:10;;;;;;;95.53;24.80;;;;;;;-2.68;71.99;96480.56;1794822;79;25645;-82
2021/12/25 10:44:36;;;;;;;147.02;34.08;;;;;;;-2.73;71.87;96486.77;1793977;79;25813;-82
2021/12/25 10:47:20;;;;;;;85.65;20.43;;;;;;;-2.78;71.72;96476.34;1794741;79;25745;-82
2021/12/25 10:49:54;;;;;;;74.80;20.32;;;;;;;-2.81;71.77;96477.47;1794655;79;27366;-82
2021/12/25 10:52:40;;;;;;;48.23;14.43;;;;;;;-2.82;71.82;96477.13;1794543;79;25762;-82
2021/12/25 10:55:17;;;;;;;526.15;177.05;;;;;;;-2.84;71.91;96477.76;1794160;79;25821;-82
2021/12/25 10:57:56;;;;;;;90.20;30.65;;;;;;;-2.84;71.99;96479.08;1794820;79;26294;-81
2021/12/25 11:00:28;;;;;;;28.87;11.20;;;;;;;-2.83;71.92;96483.88;1793325;79;25770;-80
2021/12/25 11:03:08;;;;;;;12.33;6.72;;;;;;;-2.85;71.78;96487.98;1757284;79;27359;-81
2021/12/25 11:05:38;;;;;;;23.07;9.83;;;;;;;-2.83;71.76;96481.23;1740945;80;26020;-80
2021/12/25 11:08:19;;;;;;;11.57;6.35;;;;;;;-2.83;71.88;96478.59;1792854;79;25704;-80
2021/12/25 11:10:57;;;;;;;17.27;8.88;;;;;;;-2.84;71.95;96484.36;1791298;79;25786;-80
2021/12/25 11:13:32;;;;;;;16.80;8.23;;;;;;;-2.83;72.03;96483.38;1790733;79;25673;-81
2021/12/25 11:16:20;;;;;;;13.90;6.50;;;;;;;-2.90;72.03;96484.98;1781627;79;28129;-80
2021/12/25 11:19:11;;;;;;;11.83;6.10;;;;;;;-2.91;72.02;96486.79;1781002;79;25843;-81
2021/12/25 11:21:49;;;;;;;12.45;6.30;;;;;;;-2.86;71.92;96486.32;1789499;79;25668;-81
2021/12/25 11:24:21;;;;;;;15.83;7.95;;;;;;;-2.81;71.72;96486.71;1793846;79;25738;-80
2021/12/25 11:26:58;;;;;;;19.00;9.23;;;;;;;-2.83;71.77;96486.02;1785428;79;25825;-81
2021/12/25 11:29:29;;;;;;;22.22;10.88;;;;;;;-2.79;71.63;96486.56;1794425;79;27359;-82
2021/12/25 11:31:58;;;;;;;23.25;11.28;;;;;;;-2.82;71.55;96484.22;1794430;79;25845;-81
2021/12/25 11:34:26;;;;;;;44.98;16.77;;;;;;;-2.79;71.57;96476.83;1779424;79;25741;-81
2021/12/25 11:36:55;;;;;;;41.48;15.80;;;;;;;-2.79;71.68;96482.60;1777184;79;25731;-81
2021/12/25 11:39:25;;;;;;;33.92;14.28;;;;;;;-2.80;71.66;96485.73;1779471;80;25795;-81
2021/12/25 11:41:59;;;;;;;33.08;14.28;;;;;;;-2.76;71.76;96487.06;1796852;79;27387;-82
2021/12/25 11:44:48;;;;;;;32.15;12.80;;;;;;;-2.74;71.66;96484.28;1791423;79;25975;-82
2021/12/25 11:47:38;;;;;;;35.08;14.35;;;;;;;-2.74;71.62;96484.28;1793865;79;25757;-83
2021/12/25 11:50:10;;;;;;;50.63;17.80;;;;;;;-2.72;71.67;96483.16;1794644;79;32420;-82
2021/12/25 11:52:47;;;;;;;52.03;18.95;;;;;;;-2.72;71.58;96483.64;1794009;79;25636;-82
2021/12/25 11:55:48;;;;;;;;;;;;;;;-2.79;71.63;96483.44;1796351;79;27485;-82
2021/12/25 12:00:39;;;;;;;48.20;20.27;;;;;;;-2.84;71.89;96495.41;1794574;79;26530;-82
2021/12/25 12:03:07;;;;;;;40.05;17.35;;;;;;;-2.84;71.97;96484.36;1794383;79;25735;-81
2021/12/25 12:05:36;;;;;;;44.08;18.85;;;;;;;-2.83;71.90;96484.70;1794692;79;25751;-81
2021/12/25 12:08:11;;;;;;;33.88;15.48;;;;;;;-2.84;71.97;96491.45;1794436;79;27391;-81
2021/12/25 12:10:51;;;;;;;59.93;24.85;;;;;;;-2.89;71.89;96490.57;1794398;79;26347;-82
2021/12/25 12:13:31;;;;;;;61.60;33.40;;;;;;;-2.93;71.86;96482.63;1794186;79;25752;-82
2021/12/25 12:16:02;;;;;;;20.32;10.50;;;;;;;-2.94;71.96;96486.25;1783008;78;25807;-82
2021/12/25 12:18:33;;;;;;;32.15;11.85;;;;;;;-3.04;71.87;96486.81;1826782;78;25718;-82
2021/12/25 12:21:09;;;;;;;32.28;13.48;;;;;;;-3.06;71.97;96489.60;1801454;78;27399;-82
2021/12/25 12:26:38;;;;;;;21.37;8.83;;;;;;;-3.07;71.97;96497.67;1820808;78;25672;-81
2021/12/25 12:29:05;;;;;;;25.50;12.82;;;;;;;-3.07;71.99;96498.98;1776209;78;25782;-81
2021/12/25 12:31:40;;;;;;;26.73;13.62;;;;;;;-3.04;72.12;96500.02;1825497;78;25692;-81
2021/12/25 12:34:34;;;;;;;33.30;13.85;;;;;;;-3.00;72.25;96500.04;1826415;78;27404;-81
2021/12/25 12:37:21;;;;;;;27.02;14.00;;;;;;;-2.97;72.23;96503.70;1827174;78;25632;-80
2021/12/25 12:40:03;;;;;;;22.05;11.35;;;;;;;-2.99;72.16;96511.77;1773606;78;26412;-82
2021/12/25 12:42:49;;;;;;;26.93;12.58;;;;;;;-2.97;72.04;96514.27;1762689;81;25788;-81
2021/12/25 12:45:26;;;;;;;31.35;13.38;;;;;;;-3.02;71.71;96517.86;1763116;80;25801;-81